sensor_id;sensor_type;location;lat;lon;timestamp;pressure;altitude;pressure_sealevel;temperature;humidity
65173;BME280;69059;52.218;5.172;2023-08-06T00:01:13;98304.88;;;15.95;100.00
65173;BME280;69059;52.218;5.172;2023-08-06T00:04:02;98324.38;;;15.84;100.00
65173;BME280;69059;52.218;5.172;2023-08-06T00:06:50;98318.28;;;15.93;100.00
65173;BME280;69059;52.218;5.172;2023-08-06T00:09:38;98308.50;;;15.99;100.00
65173;BME280;69059;52.218;5.172;2023-08-06T00:12:26;98310.59;;;16.02;100.00
65173;BME280;69059;52.218;5.172;2023-08-06T00:15:14;98306.16;;;15.97;100.00
65173;BME280;69059;52.218;5.172;2023-08-06T00:18:03;98308.56;;;15.94;100.00
65173;BME280;69059;52.218;5.172;2023-08-06T00:20:52;98309.63;;;15.93;100.00
65173;BME280;69059;52.218;5.172;2023-08-06T00:23:40;98311.00;;;15.80;100.00
65173;BME280;69059;52.218;5.172;2023-08-06T00:26:28;98312.25;;;15.88;100.00
65173;BME280;69059;52.218;5.172;2023-08-06T00:29:16;98319.91;;;15.84;100.00
65173;BME280;69059;52.218;5.172;2023-08-06T00:32:04;98315.41;;;15.90;100.00
65173;BME280;69059;52.218;5.172;2023-08-06T00:34:53;98319.91;;;15.84;100.00
65173;BME280;69059;52.218;5.172;2023-08-06T00:37:41;98312.84;;;15.80;100.00
65173;BME280;69059;52.218;5.172;2023-08-06T00:40:29;98316.75;;;15.87;100.00
65173;BME280;69059;52.218;5.172;2023-08-06T00:43:17;98311.75;;;15.86;100.00
65173;BME280;69059;52.218;5.172;2023-08-06T00:46:05;98303.84;;;15.86;100.00
65173;BME280;69059;52.218;5.172;2023-08-06T00:48:53;98309.88;;;15.91;100.00
65173;BME280;69059;52.218;5.172;2023-08-06T00:51:43;98305.41;;;15.92;100.00
65173;BME280;69059;52.218;5.172;2023-08-06T00:54:31;98313.13;;;15.78;100.00
65173;BME280;69059;52.218;5.172;2023-08-06T00:57:20;98314.09;;;15.87;100.00
65173;BME280;69059;52.218;5.172;2023-08-06T01:00:09;98320.94;;;15.88;100.00
65173;BME280;69059;52.218;5.172;2023-08-06T01:02:57;98309.09;;;15.91;100.00
65173;BME280;69059;52.218;5.172;2023-08-06T01:05:45;98309.38;;;15.89;100.00
65173;BME280;69059;52.218;5.172;2023-08-06T01:08:37;98297.00;;;15.90;100.00
65173;BME280;69059;52.218;5.172;2023-08-06T01:11:30;98298.56;;;15.91;100.00
65173;BME280;69059;52.218;5.172;2023-08-06T01:14:22;98290.41;;;15.92;100.00
65173;BME280;69059;52.218;5.172;2023-08-06T01:17:13;98292.25;;;15.92;100.00
65173;BME280;69059;52.218;5.172;2023-08-06T01:20:01;98283.81;;;15.95;100.00
65173;BME280;69059;52.218;5.172;2023-08-06T01:22:51;98285.97;;;15.88;100.00
65173;BME280;69059;52.218;5.172;2023-08-06T01:25:40;98286.47;;;15.90;100.00
65173;BME280;69059;52.218;5.172;2023-08-06T01:28:32;98283.31;;;15.93;100.00
65173;BME280;69059;52.218;5.172;2023-08-06T01:31:22;98287.50;;;15.94;100.00
65173;BME280;69059;52.218;5.172;2023-08-06T01:34:11;98284.09;;;15.93;100.00
65173;BME280;69059;52.218;5.172;2023-08-06T01:37:01;98286.47;;;15.90;100.00
65173;BME280;69059;52.218;5.172;2023-08-06T01:39:50;98287.25;;;15.90;100.00
65173;BME280;69059;52.218;5.172;2023-08-06T01:42:38;98295.16;;;15.90;100.00
65173;BME280;69059;52.218;5.172;2023-08-06T01:45:26;98296.47;;;15.88;100.00
65173;BME280;69059;52.218;5.172;2023-08-06T01:48:14;98297.28;;;15.83;100.00
65173;BME280;69059;52.218;5.172;2023-08-06T01:51:03;98302.53;;;15.88;100.00
65173;BME280;69059;52.218;5.172;2023-08-06T01:53:51;98297.00;;;15.90;100.00
65173;BME280;69059;52.218;5.172;2023-08-06T01:56:41;98290.94;;;15.89;100.00
65173;BME280;69059;52.218;5.172;2023-08-06T01:59:29;98293.31;;;15.91;100.00
65173;BME280;69059;52.218;5.172;2023-08-06T02:02:17;98298.13;;;15.79;100.00
65173;BME280;69059;52.218;5.172;2023-08-06T02:05:05;98302.56;;;15.83;100.00
65173;BME280;69059;52.218;5.172;2023-08-06T02:07:53;98306.47;;;15.86;100.00
65173;BME280;69059;52.218;5.172;2023-08-06T02:10:42;98309.91;;;15.86;100.00
65173;BME280;69059;52.218;5.172;2023-08-06T02:13:31;98310.44;;;15.83;100.00
65173;BME280;69059;52.218;5.172;2023-08-06T02:16:19;98312.25;;;15.88;100.00
65173;BME280;69059;52.218;5.172;2023-08-06T02:19:07;98313.31;;;15.87;100.00
65173;BME280;69059;52.218;5.172;2023-08-06T02:21:55;98310.97;;;15.85;100.00
65173;BME280;69059;52.218;5.172;2023-08-06T02:24:43;98305.94;;;15.89;100.00
65173;BME280;69059;52.218;5.172;2023-08-06T02:27:31;98305.16;;;15.88;100.00
65173;BME280;69059;52.218;5.172;2023-08-06T02:30:22;98303.84;;;15.91;100.00
65173;BME280;69059;52.218;5.172;2023-08-06T02:33:10;98294.63;;;15.93;100.00
65173;BME280;69059;52.218;5.172;2023-08-06T02:35:58;98298.81;;;15.94;100.00
65173;BME280;69059;52.218;5.172;2023-08-06T02:38:47;98297.78;;;15.90;100.00
65173;BME280;69059;52.218;5.172;2023-08-06T02:41:35;98292.53;;;15.90;100.00
65173;BME280;69059;52.218;5.172;2023-08-06T02:44:23;98299.63;;;15.90;100.00
65173;BME280;69059;52.218;5.172;2023-08-06T02:47:15;98305.94;;;15.89;100.00
65173;BME280;69059;52.218;5.172;2023-08-06T02:50:04;98301.72;;;15.93;100.00
65173;BME280;69059;52.218;5.172;2023-08-06T02:52:52;98306.03;;;15.79;100.00
65173;BME280;69059;52.218;5.172;2023-08-06T02:55:44;98313.31;;;15.87;100.00
65173;BME280;69059;52.218;5.172;2023-08-06T02:58:33;98303.63;;;15.82;100.00
65173;BME280;69059;52.218;5.172;2023-08-06T03:01:20;98302.59;;;15.78;100.00
65173;BME280;69059;52.218;5.172;2023-08-06T03:04:11;98303.91;;;15.81;100.00
65173;BME280;69059;52.218;5.172;2023-08-06T03:06:59;98307.88;;;15.78;100.00
65173;BME280;69059;52.218;5.172;2023-08-06T03:09:47;98299.66;;;15.85;100.00
65173;BME280;69059;52.218;5.172;2023-08-06T03:12:35;98305.69;;;15.85;100.00
65173;BME280;69059;52.218;5.172;2023-08-06T03:15:23;98295.69;;;15.87;100.00
65173;BME280;69059;52.218;5.172;2023-08-06T03:18:11;98293.13;;;15.82;100.00
65173;BME280;69059;52.218;5.172;2023-08-06T03:21:01;98301.78;;;15.83;100.00
65173;BME280;69059;52.218;5.172;2023-08-06T03:23:49;98300.44;;;15.85;100.00
65173;BME280;69059;52.218;5.172;2023-08-06T03:26:37;98303.84;;;15.86;100.00
65173;BME280;69059;52.218;5.172;2023-08-06T03:29:25;98303.34;;;15.84;100.00
65173;BME280;69059;52.218;5.172;2023-08-06T03:32:13;98304.66;;;15.86;100.00
65173;BME280;69059;52.218;5.172;2023-08-06T03:35:01;98296.28;;;15.79;100.00
65173;BME280;69059;52.218;5.172;2023-08-06T03:37:51;98307.63;;;15.74;100.00
65173;BME280;69059;52.218;5.172;2023-08-06T03:40:39;98308.91;;;15.82;100.00
65173;BME280;69059;52.218;5.172;2023-08-06T03:43:27;98306.03;;;15.79;100.00
65173;BME280;69059;52.218;5.172;2023-08-06T03:46:15;98304.19;;;15.79;100.00
65173;BME280;69059;52.218;5.172;2023-08-06T03:49:03;98302.41;;;15.69;100.00
65173;BME280;69059;52.218;5.172;2023-08-06T03:51:51;98310.00;;;15.71;100.00
65173;BME280;69059;52.218;5.172;2023-08-06T03:54:41;98311.03;;;15.75;100.00
65173;BME280;69059;52.218;5.172;2023-08-06T03:57:29;98305.78;;;15.75;100.00
65173;BME280;69059;52.218;5.172;2023-08-06T04:00:18;98305.22;;;15.78;100.00
65173;BME280;69059;52.218;5.172;2023-08-06T04:03:06;98306.03;;;15.79;100.00
65173;BME280;69059;52.218;5.172;2023-08-06T04:05:54;98298.88;;;15.84;100.00
65173;BME280;69059;52.218;5.172;2023-08-06T04:08:42;98302.88;;;15.76;100.00
65173;BME280;69059;52.218;5.172;2023-08-06T04:11:31;98299.44;;;15.81;100.00
65173;BME280;69059;52.218;5.172;2023-08-06T04:14:20;98298.13;;;15.79;100.00
65173;BME280;69059;52.218;5.172;2023-08-06T04:17:08;98304.72;;;15.76;100.00
65173;BME280;69059;52.218;5.172;2023-08-06T04:19:56;98307.59;;;15.80;100.00
65173;BME280;69059;52.218;5.172;2023-08-06T04:22:45;98307.28;;;15.86;100.00
65173;BME280;69059;52.218;5.172;2023-08-06T04:25:33;98305.69;;;15.85;100.00
65173;BME280;69059;52.218;5.172;2023-08-06T04:28:22;98317.28;;;15.84;100.00
65173;BME280;69059;52.218;5.172;2023-08-06T04:31:10;98309.97;;;15.81;100.00
65173;BME280;69059;52.218;5.172;2023-08-06T04:33:58;98321.72;;;15.89;100.00
65173;BME280;69059;52.218;5.172;2023-08-06T04:36:46;98316.47;;;15.89;100.00
65173;BME280;69059;52.218;5.172;2023-08-06T04:39:35;98321.72;;;15.89;100.00
65173;BME280;69059;52.218;5.172;2023-08-06T04:42:23;98324.09;;;15.90;100.00
65173;BME280;69059;52.218;5.172;2023-08-06T04:45:13;98328.03;;;15.93;100.00
65173;BME280;69059;52.218;5.172;2023-08-06T04:48:01;98321.19;;;15.92;100.00
65173;BME280;69059;52.218;5.172;2023-08-06T04:50:49;98326.97;;;15.94;100.00
65173;BME280;69059;52.218;5.172;2023-08-06T04:53:38;98329.34;;;15.90;100.00
65173;BME280;69059;52.218;5.172;2023-08-06T04:56:26;98335.41;;;15.91;100.00
65173;BME280;69059;52.218;5.172;2023-08-06T04:59:13;98332.47;;;15.97;100.00
65173;BME280;69059;52.218;5.172;2023-08-06T05:02:03;98330.59;;;15.98;100.00
65173;BME280;69059;52.218;5.172;2023-08-06T05:04:51;98338.78;;;15.96;100.00
65173;BME280;69059;52.218;5.172;2023-08-06T05:07:39;98328.25;;;15.96;100.00
65173;BME280;69059;52.218;5.172;2023-08-06T05:10:27;98336.66;;;15.98;100.00
65173;BME280;69059;52.218;5.172;2023-08-06T05:13:15;98332.69;;;16.01;100.00
65173;BME280;69059;52.218;5.172;2023-08-06T05:16:03;98331.09;;;16.05;100.00
65173;BME280;69059;52.218;5.172;2023-08-06T05:18:53;98325.56;;;16.06;100.00
65173;BME280;69059;52.218;5.172;2023-08-06T05:21:41;98326.84;;;16.09;100.00
65173;BME280;69059;52.218;5.172;2023-08-06T05:24:29;98338.69;;;16.11;100.00
65173;BME280;69059;52.218;5.172;2023-08-06T05:27:17;98346.81;;;16.15;100.00
65173;BME280;69059;52.218;5.172;2023-08-06T05:30:06;98353.13;;;16.19;100.00
65173;BME280;69059;52.218;5.172;2023-08-06T05:32:55;98346.50;;;16.22;100.00
65173;BME280;69059;52.218;5.172;2023-08-06T05:35:44;98347.00;;;16.24;100.00
65173;BME280;69059;52.218;5.172;2023-08-06T05:38:32;98357.28;;;16.25;100.00
65173;BME280;69059;52.218;5.172;2023-08-06T05:41:21;98355.16;;;16.27;100.00
65173;BME280;69059;52.218;5.172;2023-08-06T05:44:09;98367.00;;;16.25;100.00
65173;BME280;69059;52.218;5.172;2023-08-06T05:46:57;98370.69;;;16.29;100.00
65173;BME280;69059;52.218;5.172;2023-08-06T05:49:45;98364.09;;;16.31;100.00
65173;BME280;69059;52.218;5.172;2023-08-06T05:52:35;98374.34;;;16.33;100.00
65173;BME280;69059;52.218;5.172;2023-08-06T05:55:23;98372.72;;;16.37;100.00
65173;BME280;69059;52.218;5.172;2023-08-06T05:58:11;98367.44;;;16.37;100.00
65173;BME280;69059;52.218;5.172;2023-08-06T06:00:59;98370.09;;;16.37;100.00
65173;BME280;69059;52.218;5.172;2023-08-06T06:03:47;98387.56;;;16.23;100.00
65173;BME280;69059;52.218;5.172;2023-08-06T06:06:35;98396.97;;;16.34;100.00
65173;BME280;69059;52.218;5.172;2023-08-06T06:09:25;98393.06;;;16.26;100.00
65173;BME280;69059;52.218;5.172;2023-08-06T06:12:13;98402.78;;;16.31;100.00
65173;BME280;69059;52.218;5.172;2023-08-06T06:15:01;98400.94;;;16.31;100.00
65173;BME280;69059;52.218;5.172;2023-08-06T06:17:50;98398.59;;;16.30;100.00
65173;BME280;69059;52.218;5.172;2023-08-06T06:20:38;98398.09;;;16.23;100.00
65173;BME280;69059;52.218;5.172;2023-08-06T06:23:26;98401.56;;;16.13;100.00
65173;BME280;69059;52.218;5.172;2023-08-06T06:26:15;98407.16;;;16.06;100.00
65173;BME280;69059;52.218;5.172;2023-08-06T06:29:03;98410.00;;;16.10;100.00
65173;BME280;69059;52.218;5.172;2023-08-06T06:31:54;98415.06;;;16.06;100.00
65173;BME280;69059;52.218;5.172;2023-08-06T06:34:42;98418.22;;;16.03;100.00
65173;BME280;69059;52.218;5.172;2023-08-06T06:37:30;98417.69;;;16.01;100.00
65173;BME280;69059;52.218;5.172;2023-08-06T06:40:18;98434.00;;;16.03;100.00
65173;BME280;69059;52.218;5.172;2023-08-06T06:43:07;98428.69;;;16.08;100.00
65173;BME280;69059;52.218;5.172;2023-08-06T06:45:56;98437.38;;;16.09;100.00
65173;BME280;69059;52.218;5.172;2023-08-06T06:48:44;98431.13;;;16.00;100.00
65173;BME280;69059;52.218;5.172;2023-08-06T06:51:33;98441.38;;;16.01;100.00
65173;BME280;69059;52.218;5.172;2023-08-06T06:54:21;98453.56;;;15.87;100.00
65173;BME280;69059;52.218;5.172;2023-08-06T06:57:09;98464.91;;;15.72;100.00
65173;BME280;69059;52.218;5.172;2023-08-06T06:59:58;98476.25;;;15.68;100.00
65173;BME280;69059;52.218;5.172;2023-08-06T07:02:46;98490.78;;;15.25;100.00
65173;BME280;69059;52.218;5.172;2023-08-06T07:05:34;98528.63;;;15.09;100.00
65173;BME280;69059;52.218;5.172;2023-08-06T07:08:23;98545.19;;;14.89;100.00
65173;BME280;69059;52.218;5.172;2023-08-06T07:11:11;98551.47;;;14.78;100.00
65173;BME280;69059;52.218;5.172;2023-08-06T07:13:59;98556.44;;;14.74;100.00
65173;BME280;69059;52.218;5.172;2023-08-06T07:16:49;98549.16;;;15.07;100.00
65173;BME280;69059;52.218;5.172;2023-08-06T07:19:37;98532.84;;;15.25;100.00
65173;BME280;69059;52.218;5.172;2023-08-06T07:22:25;98545.69;;;14.96;100.00
65173;BME280;69059;52.218;5.172;2023-08-06T07:25:13;98532.31;;;15.13;100.00
65173;BME280;69059;52.218;5.172;2023-08-06T07:28:01;98524.16;;;15.34;100.00
65173;BME280;69059;52.218;5.172;2023-08-06T07:30:49;98516.53;;;15.43;100.00
65173;BME280;69059;52.218;5.172;2023-08-06T07:33:39;98511.28;;;15.43;100.00
65173;BME280;69059;52.218;5.172;2023-08-06T07:36:27;98505.47;;;15.46;100.00
65173;BME280;69059;52.218;5.172;2023-08-06T07:39:15;98491.53;;;15.35;100.00
65173;BME280;69059;52.218;5.172;2023-08-06T07:42:04;98512.34;;;15.01;100.00
65173;BME280;69059;52.218;5.172;2023-08-06T07:44:53;98501.84;;;15.17;100.00
65173;BME280;69059;52.218;5.172;2023-08-06T07:47:42;98507.88;;;15.07;100.00
65173;BME280;69059;52.218;5.172;2023-08-06T07:50:32;98500.25;;;15.11;100.00
65173;BME280;69059;52.218;5.172;2023-08-06T07:53:20;98504.47;;;14.81;100.00
65173;BME280;69059;52.218;5.172;2023-08-06T07:56:08;98522.03;;;14.76;100.00
65173;BME280;69059;52.218;5.172;2023-08-06T07:58:56;98509.69;;;14.86;100.00
65173;BME280;69059;52.218;5.172;2023-08-06T08:01:44;98505.00;;;15.03;100.00
65173;BME280;69059;52.218;5.172;2023-08-06T08:04:32;98506.03;;;15.07;100.00
65173;BME280;69059;52.218;5.172;2023-08-06T08:07:21;98503.41;;;15.18;100.00
65173;BME280;69059;52.218;5.172;2023-08-06T08:10:09;98498.66;;;15.25;100.00
65173;BME280;69059;52.218;5.172;2023-08-06T08:12:57;98501.28;;;15.30;100.00
65173;BME280;69059;52.218;5.172;2023-08-06T08:15:45;98490.53;;;15.31;100.00
65173;BME280;69059;52.218;5.172;2023-08-06T08:18:34;98491.53;;;15.40;100.00
65173;BME280;69059;52.218;5.172;2023-08-06T08:21:22;98493.66;;;15.38;100.00
65173;BME280;69059;52.218;5.172;2023-08-06T08:24:12;98497.06;;;15.39;100.00
65173;BME280;69059;52.218;5.172;2023-08-06T08:27:00;98498.41;;;15.26;100.00
65173;BME280;69059;52.218;5.172;2023-08-06T08:29:48;98504.41;;;15.47;100.00
65173;BME280;69059;52.218;5.172;2023-08-06T08:32:36;98495.22;;;15.55;100.00
65173;BME280;69059;52.218;5.172;2023-08-06T08:35:24;98501.25;;;15.65;100.00
65173;BME280;69059;52.218;5.172;2023-08-06T08:38:12;98494.13;;;15.71;100.00
65173;BME280;69059;52.218;5.172;2023-08-06T08:41:01;98485.69;;;15.79;100.00
65173;BME280;69059;52.218;5.172;2023-08-06T08:43:50;98489.38;;;15.78;100.00
65173;BME280;69059;52.218;5.172;2023-08-06T08:46:40;98492.22;;;15.87;100.00
65173;BME280;69059;52.218;5.172;2023-08-06T08:49:28;98488.00;;;15.91;100.00
65173;BME280;69059;52.218;5.172;2023-08-06T08:52:16;98481.91;;;16.05;100.00
65173;BME280;69059;52.218;5.172;2023-08-06T08:55:07;98480.31;;;16.04;100.00
65173;BME280;69059;52.218;5.172;2023-08-06T08:57:57;98486.94;;;15.97;100.00
65173;BME280;69059;52.218;5.172;2023-08-06T09:00:45;98502.69;;;16.07;100.00
65173;BME280;69059;52.218;5.172;2023-08-06T09:03:33;98508.50;;;16.04;100.00
65173;BME280;69059;52.218;5.172;2023-08-06T09:06:22;98512.53;;;16.35;100.00
65173;BME280;69059;52.218;5.172;2023-08-06T09:09:12;98508.38;;;16.24;100.00
65173;BME280;69059;52.218;5.172;2023-08-06T09:12:01;98500.09;;;16.51;100.00
65173;BME280;69059;52.218;5.172;2023-08-06T09:14:51;98489.94;;;16.73;100.00
65173;BME280;69059;52.218;5.172;2023-08-06T09:17:39;98488.44;;;16.67;100.00
65173;BME280;69059;52.218;5.172;2023-08-06T09:20:27;98490.19;;;16.77;100.00
65173;BME280;69059;52.218;5.172;2023-08-06T09:23:17;98471.09;;;16.95;100.00
65173;BME280;69059;52.218;5.172;2023-08-06T09:26:06;98467.09;;;16.98;100.00
65173;BME280;69059;52.218;5.172;2023-08-06T09:28:54;98471.88;;;16.96;100.00
65173;BME280;69059;52.218;5.172;2023-08-06T09:31:44;98467.31;;;17.06;100.00
65173;BME280;69059;52.218;5.172;2023-08-06T09:34:33;98474.84;;;17.18;100.00
65173;BME280;69059;52.218;5.172;2023-08-06T09:37:21;98476.69;;;17.17;100.00
65173;BME280;69059;52.218;5.172;2023-08-06T09:40:23;98488.16;;;17.03;100.00
65173;BME280;69059;52.218;5.172;2023-08-06T09:43:11;98495.78;;;17.04;100.00
65173;BME280;69059;52.218;5.172;2023-08-06T09:45:59;98501.59;;;17.01;100.00
65173;BME280;69059;52.218;5.172;2023-08-06T09:48:50;98506.16;;;16.91;100.00
65173;BME280;69059;52.218;5.172;2023-08-06T09:51:38;98513.88;;;16.82;100.00
65173;BME280;69059;52.218;5.172;2023-08-06T09:54:26;98518.38;;;16.76;100.00
65173;BME280;69059;52.218;5.172;2023-08-06T09:57:17;98529.72;;;16.72;100.00
65173;BME280;69059;52.218;5.172;2023-08-06T10:00:05;98533.47;;;16.66;100.00
65173;BME280;69059;52.218;5.172;2023-08-06T10:02:55;98545.38;;;16.48;100.00
65173;BME280;69059;52.218;5.172;2023-08-06T10:05:48;98560.66;;;16.51;100.00
65173;BME280;69059;52.218;5.172;2023-08-06T10:08:37;98561.72;;;16.50;100.00
65173;BME280;69059;52.218;5.172;2023-08-06T10:11:27;98571.25;;;16.41;100.00
65173;BME280;69059;52.218;5.172;2023-08-06T10:14:18;98571.72;;;16.48;100.00
65173;BME280;69059;52.218;5.172;2023-08-06T10:17:07;98583.63;;;16.35;100.00
65173;BME280;69059;52.218;5.172;2023-08-06T10:19:56;98592.91;;;16.23;100.00
65173;BME280;69059;52.218;5.172;2023-08-06T10:22:46;98600.03;;;16.12;100.00
65173;BME280;69059;52.218;5.172;2023-08-06T10:25:47;98606.34;;;16.16;100.00
65173;BME280;69059;52.218;5.172;2023-08-06T10:28:42;98605.84;;;16.14;100.00
65173;BME280;69059;52.218;5.172;2023-08-06T10:34:52;98604.75;;;16.25;100.00
65173;BME280;69059;52.218;5.172;2023-08-06T10:37:41;98611.44;;;15.92;100.00
65173;BME280;69059;52.218;5.172;2023-08-06T10:40:34;98619.81;;;15.99;100.00
65173;BME280;69059;52.218;5.172;2023-08-06T10:43:25;98628.25;;;15.91;100.00
65173;BME280;69059;52.218;5.172;2023-08-06T10:46:21;98639.00;;;16.10;100.00
65173;BME280;69059;52.218;5.172;2023-08-06T10:49:10;98630.31;;;16.20;100.00
65173;BME280;69059;52.218;5.172;2023-08-06T10:51:59;98622.38;;;16.25;100.00
65173;BME280;69059;52.218;5.172;2023-08-06T10:54:47;98620.00;;;16.28;100.00
65173;BME280;69059;52.218;5.172;2023-08-06T10:57:36;98619.22;;;16.33;100.00
65173;BME280;69059;52.218;5.172;2023-08-06T11:00:24;98610.50;;;16.37;100.00
65173;BME280;69059;52.218;5.172;2023-08-06T11:03:12;98614.97;;;16.37;100.00
65173;BME280;69059;52.218;5.172;2023-08-06T11:06:01;98617.06;;;16.45;100.00
65173;BME280;69059;52.218;5.172;2023-08-06T11:08:50;98614.75;;;16.33;100.00
65173;BME280;69059;52.218;5.172;2023-08-06T11:11:38;98624.50;;;16.28;100.00
65173;BME280;69059;52.218;5.172;2023-08-06T11:14:30;98625.53;;;16.32;100.00
65173;BME280;69059;52.218;5.172;2023-08-06T11:17:18;98624.19;;;16.39;100.00
65173;BME280;69059;52.218;5.172;2023-08-06T11:20:07;98631.59;;;16.27;100.00
65173;BME280;69059;52.218;5.172;2023-08-06T11:22:55;98630.81;;;16.32;100.00
65173;BME280;69059;52.218;5.172;2023-08-06T11:25:44;98635.50;;;16.35;100.00
65173;BME280;69059;52.218;5.172;2023-08-06T11:28:32;98634.72;;;16.44;100.00
65173;BME280;69059;52.218;5.172;2023-08-06T11:31:22;98643.94;;;16.37;100.00
65173;BME280;69059;52.218;5.172;2023-08-06T11:34:10;98619.84;;;15.89;100.00
65173;BME280;69059;52.218;5.172;2023-08-06T11:36:58;98678.78;;;15.98;100.00
65173;BME280;69059;52.218;5.172;2023-08-06T11:39:47;98700.84;;;15.41;100.00
65173;BME280;69059;52.218;5.172;2023-08-06T11:42:35;98727.66;;;15.38;100.00
65173;BME280;69059;52.218;5.172;2023-08-06T11:45:24;98726.13;;;15.63;100.00
65173;BME280;69059;52.218;5.172;2023-08-06T11:48:13;98722.19;;;15.70;100.00
65173;BME280;69059;52.218;5.172;2023-08-06T11:51:01;98726.34;;;15.51;100.00
65173;BME280;69059;52.218;5.172;2023-08-06T11:53:53;98710.91;;;15.80;100.00
65173;BME280;69059;52.218;5.172;2023-08-06T11:56:42;98719.56;;;15.65;100.00
65173;BME280;69059;52.218;5.172;2023-08-06T11:59:30;98706.13;;;15.72;100.00
65173;BME280;69059;52.218;5.172;2023-08-06T12:02:18;98705.63;;;15.75;100.00
65173;BME280;69059;52.218;5.172;2023-08-06T12:05:12;98687.47;;;15.89;100.00
65173;BME280;69059;52.218;5.172;2023-08-06T12:08:01;98691.69;;;15.90;100.00
65173;BME280;69059;52.218;5.172;2023-08-06T12:10:49;98692.22;;;15.82;100.00
65173;BME280;69059;52.218;5.172;2023-08-06T12:13:37;98680.88;;;16.06;100.00
65173;BME280;69059;52.218;5.172;2023-08-06T12:16:25;98667.09;;;16.35;100.00
65173;BME280;69059;52.218;5.172;2023-08-06T12:19:14;98665.06;;;16.11;100.00
65173;BME280;69059;52.218;5.172;2023-08-06T12:22:04;98675.38;;;15.93;100.00
65173;BME280;69059;52.218;5.172;2023-08-06T12:24:52;98672.16;;;16.16;100.00
65173;BME280;69059;52.218;5.172;2023-08-06T12:27:41;98672.16;;;16.21;100.00
65173;BME280;69059;52.218;5.172;2023-08-06T12:30:29;98663.38;;;16.51;100.00
65173;BME280;69059;52.218;5.172;2023-08-06T12:33:18;98649.66;;;16.64;100.00
65173;BME280;69059;52.218;5.172;2023-08-06T12:36:06;98652.34;;;16.44;100.00
65173;BME280;69059;52.218;5.172;2023-08-06T12:38:56;98650.50;;;16.39;100.00
65173;BME280;69059;52.218;5.172;2023-08-06T12:41:43;98652.88;;;16.41;100.00
65173;BME280;69059;52.218;5.172;2023-08-06T12:44:32;98674.00;;;16.26;100.00
65173;BME280;69059;52.218;5.172;2023-08-06T12:47:20;98684.00;;;16.29;100.00
65173;BME280;69059;52.218;5.172;2023-08-06T12:50:08;98677.84;;;16.59;100.00
65173;BME280;69059;52.218;5.172;2023-08-06T12:52:57;98667.56;;;16.62;100.00
65173;BME280;69059;52.218;5.172;2023-08-06T12:55:46;98663.34;;;16.61;100.00
65173;BME280;69059;52.218;5.172;2023-08-06T12:58:34;98663.63;;;16.70;100.00
65173;BME280;69059;52.218;5.172;2023-08-06T13:01:23;98660.88;;;16.85;100.00
65173;BME280;69059;52.218;5.172;2023-08-06T13:04:11;98653.03;;;16.75;100.00
65173;BME280;69059;52.218;5.172;2023-08-06T13:07:08;98664.91;;;16.72;100.00
65173;BME280;69059;52.218;5.172;2023-08-06T13:09:56;98681.81;;;16.51;100.00
65173;BME280;69059;52.218;5.172;2023-08-06T13:12:46;98691.53;;;16.71;100.00
65173;BME280;69059;52.218;5.172;2023-08-06T13:15:34;98694.41;;;16.59;100.00
65173;BME280;69059;52.218;5.172;2023-08-06T13:18:22;98702.34;;;16.54;100.00
65173;BME280;69059;52.218;5.172;2023-08-06T13:21:10;98696.97;;;16.90;100.00
65173;BME280;69059;52.218;5.172;2023-08-06T13:23:58;98685.56;;;17.04;100.00
65173;BME280;69059;52.218;5.172;2023-08-06T13:26:46;98693.06;;;16.82;100.00
65173;BME280;69059;52.218;5.172;2023-08-06T13:29:35;98679.19;;;17.10;100.00
65173;BME280;69059;52.218;5.172;2023-08-06T13:32:23;98678.13;;;17.16;100.00
65173;BME280;69059;52.218;5.172;2023-08-06T13:35:12;98664.53;;;17.38;100.00
65173;BME280;69059;52.218;5.172;2023-08-06T13:38:00;98666.66;;;17.36;100.00
65173;BME280;69059;52.218;5.172;2023-08-06T13:40:49;98662.22;;;17.32;100.00
65173;BME280;69059;52.218;5.172;2023-08-06T13:43:38;98660.75;;;17.49;100.00
65173;BME280;69059;52.218;5.172;2023-08-06T13:46:27;98660.00;;;17.44;100.00
65173;BME280;69059;52.218;5.172;2023-08-06T13:49:15;98668.75;;;17.39;100.00
65173;BME280;69059;52.218;5.172;2023-08-06T13:52:04;98673.56;;;17.32;100.00
65173;BME280;69059;52.218;5.172;2023-08-06T13:55:08;98668.38;;;17.56;100.00
65173;BME280;69059;52.218;5.172;2023-08-06T13:57:56;98677.59;;;17.59;100.00
65173;BME280;69059;52.218;5.172;2023-08-06T14:00:44;98683.06;;;17.28;100.00
65173;BME280;69059;52.218;5.172;2023-08-06T14:03:34;98675.56;;;17.06;100.00
65173;BME280;69059;52.218;5.172;2023-08-06T14:06:22;98710.63;;;17.02;100.00
65173;BME280;69059;52.218;5.172;2023-08-06T14:09:10;98717.84;;;16.81;100.00
65173;BME280;69059;52.218;5.172;2023-08-06T14:12:00;98728.66;;;16.79;100.00
65173;BME280;69059;52.218;5.172;2023-08-06T14:14:49;98725.00;;;17.25;100.00
65173;BME280;69059;52.218;5.172;2023-08-06T14:17:37;98717.88;;;17.30;100.00
65173;BME280;69059;52.218;5.172;2023-08-06T14:20:28;98708.91;;;17.26;100.00
65173;BME280;69059;52.218;5.172;2023-08-06T14:23:16;98709.06;;;17.45;100.00
65173;BME280;69059;52.218;5.172;2023-08-06T14:26:04;98708.44;;;17.14;100.00
65173;BME280;69059;52.218;5.172;2023-08-06T14:28:52;98724.47;;;17.23;100.00
65173;BME280;69059;52.218;5.172;2023-08-06T14:31:41;98730.59;;;17.18;100.00
65173;BME280;69059;52.218;5.172;2023-08-06T14:34:29;98729.56;;;17.58;100.00
65173;BME280;69059;52.218;5.172;2023-08-06T14:37:18;98732.06;;;17.78;100.00
65173;BME280;69059;52.218;5.172;2023-08-06T14:40:07;98708.47;;;17.92;100.00
65173;BME280;69059;52.218;5.172;2023-08-06T14:42:55;98707.72;;;17.86;100.00
65173;BME280;69059;52.218;5.172;2023-08-06T14:45:44;98723.19;;;17.64;100.00